• Join FlightAware (Why Join?)
  • Login
  • US Flag 
11:44AM EST


 

Airport Tracker/Info


-or-


 

Live Flight TrackerFlight Track Log ✈ ASQ4421 ✈ 24-Oct-2013 ✈ CYOW - KORD

Flight Track Log - Related Links

Times and Time Zones

All times are in EDT time to prevent confusion due to time zone crossing. See the ASQ4421 flight status page for this flight to view local times or setup timezone preferences in your user account.

Time Position Orientation Groundspeed Altitude Reporting Facility
EDT Latitude Longitude Course Direction KTS MPH feet Rate Location/Type
06:29AM 45.3000 -75.6667 249° West 70 81 500  Level Montreal Center
06:30AM 45.2667 -75.6167 133° Southeast 190 219 2,200 1,620 Climbing Montreal Center
06:31AM 45.2333 -75.5667 133° Southeast 250 288 3,800 2,160 Climbing Montreal Center
06:32AM 45.2000 -75.6167 227° Southwest 220 253 6,600 2,640 Climbing Montreal Center
06:33AM 45.2333 -75.7000 300° West 230 265 9,100 2,100 Climbing Montreal Center
06:34AM 45.2500 -75.8000 283° West 250 288 10,800 1,320 Climbing Montreal Center
06:35AM 45.1511 -76.4831 249° West  Level Estimated
06:35AM 45.2667 -75.9167 282° West 290 334 11,800  Level Montreal Center
06:36AM 45.3000 -76.0333 292° West 320 368 12,900 1,020 Climbing Montreal Center
06:37AM 45.3167 -76.1667 280° West 330 380 13,900 1,020 Climbing Montreal Center
06:38AM 45.3500 -76.3000 290° West 340 391 15,000 1,020 Climbing Montreal Center
06:39AM 45.3500 -76.4167 270° West 350 403 16,000 960 Climbing Montreal Center
06:40AM 45.3167 -76.5667 253° West 360 414 17,000 1,140 Climbing Montreal Center
06:41AM 45.2833 -76.7000 250° West 360 414 18,300 1,140 Climbing Montreal Center
06:42AM 45.2500 -76.8167 248° West 370 426 19,300 1,020 Climbing Montreal Center
06:43AM 45.2167 -76.9667 253° West 370 426 20,400 1,020 Climbing Montreal Center
06:44AM 45.1833 -77.1167 253° West 380 437 21,400 960 Climbing Montreal Center
06:45AM 45.1500 -77.2667 253° West 380 437 22,400 960 Climbing Montreal Center
06:46AM 45.1167 -77.4000 251° West 380 437 23,400 720 Climbing Montreal Center
06:47AM 45.0833 -77.5500 253° West 400 460 23,900 300 Climbing Montreal Center
06:48AM 45.0500 -77.7000 253° West 420 483 24,000  Climbing Montreal Center
06:49AM 45.0000 -77.8667 247° West 430 495 24,000  Level Montreal Center
06:50AM 44.9667 -78.0333 254° West 430 495 24,000  Level Montreal Center
06:51AM 44.9167 -78.1833 245° Southwest 440 506 24,000  Level Montreal Center
06:52AM 44.8833 -78.3500 254° West 440 506 24,000  Level Montreal Center
06:53AM 44.8500 -78.5167 254° West 440 506 24,000  Level Montreal Center
06:54AM 44.8000 -78.6833 247° West 440 506 24,000  Level Montreal Center
06:55AM 44.7500 -78.8500 247° West 440 506 24,000  Level Montreal Center
06:56AM 44.7000 -78.9833 242° Southwest 440 506 24,000  Level Montreal Center
06:57AM 44.6500 -79.1500 247° West 440 506 24,000  Level Montreal Center
06:58AM 44.5833 -79.3000 238° Southwest 440 506 24,000  Level Montreal Center
06:59AM 44.5333 -79.4667 247° West 440 506 24,000  Level Montreal Center
07:00AM 44.4500 -79.6500 238° Southwest 440 506 24,000  Level Toronto Center
07:01AM 44.4000 -79.8167 247° West 440 506 24,000  Level Toronto Center
07:02AM 44.3500 -79.9667 245° Southwest 430 495 24,000  Level Toronto Center
07:03AM 44.3000 -80.1167 245° Southwest 430 495 24,000  Level Toronto Center
07:04AM 44.2500 -80.2667 245° Southwest 430 495 24,000  Level Toronto Center
07:05AM 44.2000 -80.4167 245° Southwest 430 495 24,000  Level Toronto Center
07:06AM 44.1333 -80.5667 238° Southwest 430 495 24,000  Level Toronto Center
07:07AM 44.0833 -80.7167 245° Southwest 430 495 24,000  Level Toronto Center
07:08AM 44.0167 -80.8667 238° Southwest 430 495 24,000  Level Toronto Center
07:09AM 43.9667 -81.0167 245° Southwest 420 483 24,000  Level Toronto Center
07:10AM 43.9167 -81.1667 245° Southwest 420 483 24,000  Level Toronto Center
07:11AM 43.8667 -81.3000 243° Southwest 420 483 24,000  Level Toronto Center
07:12AM 43.8167 -81.4333 243° Southwest 410 472 24,000  Level Toronto Center
07:13AM 43.7667 -81.6000 247° West 410 472 24,000  Level Toronto Center
07:14AM 43.7333 -81.7333 251° West 410 472 24,000  Level Toronto Center
07:15AM 43.6667 -81.8667 235° Southwest 410 472 24,000  Level Toronto Center
07:16AM 43.6167 -82.0000 243° Southwest 410 472 24,000  Level Toronto Center
07:17AM 43.5500 -82.1667 241° Southwest 420 483 24,000  Level Toronto Center
07:18AM 43.5269 -82.2847 255° West 416 479 24,000  Level Cleveland Center
07:19AM 43.4742 -82.4258 243° Southwest 416 479 24,000  Level Cleveland Center
07:20AM 43.4211 -82.5642 242° Southwest 412 474 24,000  Level Cleveland Center
07:21AM 43.3728 -82.6939 243° Southwest 391 450 24,000  Level Cleveland Center
07:23AM 43.3169 -82.8386 242° Southwest 363 418 24,000  Level Cleveland Center
07:24AM 43.2703 -82.9611 242° Southwest 364 419 24,000  Level Cleveland Center
07:25AM 43.2217 -83.0875 242° Southwest 373 429 24,000  Level Cleveland Center
07:26AM 43.1703 -83.2183 242° Southwest 388 447 24,000  Level Cleveland Center
07:27AM 43.1367 -83.3561 252° West 384 442 24,000  Level Cleveland Center
07:28AM 43.1167 -83.4969 259° West 380 437 24,000  Level Cleveland Center
07:29AM 43.0897 -83.6647 258° West 378 435 24,000  Level Cleveland Center
07:30AM 43.0669 -83.8103 258° West 391 450 24,000  Level Cleveland Center
07:31AM 43.0433 -83.9614 258° West 406 467 24,000  Level Cleveland Center
07:32AM 43.0189 -84.1072 257° West 398 458 24,000  Level Cleveland Center
07:33AM 42.9958 -84.2517 258° West 393 452 24,000  Level Cleveland Center
07:34AM 42.9722 -84.4064 258° West 390 449 24,000  Level Cleveland Center
07:35AM 42.9472 -84.5544 257° West 399 459 24,000  Level Cleveland Center
07:36AM 42.9219 -84.7047 257° West 406 467 24,000  Level Cleveland Center
07:37AM 42.8981 -84.8533 258° West 402 463 24,000  Level Cleveland Center
07:38AM 42.8678 -85.0317 257° West 402 463 24,000  Level Cleveland Center
07:39AM 42.8419 -85.1792 257° West 400 460 24,000 -60 Level Cleveland Center
07:40AM 42.8175 -85.3269 257° West 399 459 23,900 -540 Descending Cleveland Center
07:41AM 42.7914 -85.4722 256° West 396 456 22,900 -1,020 Descending Cleveland Center
07:42AM 42.7653 -85.6183 256° West 395 455 21,900 -1,020 Descending Cleveland Center
07:43AM 42.7389 -85.7661 256° West 399 459 20,800 -840 Descending Cleveland Center
07:44AM 42.7122 -85.9122 256° West 396 456 20,200 -420 Descending Cleveland Center
07:45AM 42.6858 -86.0536 256° West 386 444 20,000 -120 Descending Cleveland Center
07:46AM 42.6597 -86.1975 256° West 389 448 20,000 -240 Level Cleveland Center
07:47AM 42.6272 -86.3694 256° West 391 450 19,600 -720 Descending Cleveland Center
07:49AM 42.5961 -86.5358 256° West 380 437 18,300 -1,500 Descending Chicago Center
07:50AM 42.5658 -86.6958 256° West 366 421 16,000 -2,160 Descending Chicago Center
07:51AM 42.5361 -86.8231 252° West 359 413 13,900 -2,040 Descending Chicago Center
07:52AM 42.5006 -86.9453 249° West 353 406 11,900 -1,860 Descending Chicago Center
07:53AM 42.4669 -87.0631 249° West 341 392 10,200 -960 Descending Chicago Center
07:54AM 42.4356 -87.1806 250° West 333 383 10,000 -240 Descending Chicago Center
07:55AM 42.4053 -87.2897 249° West 308 354 9,800 -720 Descending Chicago Center
07:56AM 42.3744 -87.3994 249° West 273 314 8,600 -1,020 Descending Chicago Center
07:57AM 42.3208 -87.4397 209° Southwest 271 312 7,800 -1,020 Descending Chicago Center
07:58AM 42.2367 -87.4711 195° South 264 304 6,600 -1,140 Descending Chicago Center
07:59AM 42.1639 -87.4981 195° South 271 312 5,500 -1,020 Descending Chicago Center
08:00AM 42.1008 -87.5419 207° Southwest 262 302 4,600 -780 Descending Chicago Center
08:01AM 42.0472 -87.6031 220° Southwest 254 292 4,000 -480 Descending Chicago Center
08:02AM 42.0194 -87.6869 246° West 248 285 3,700 -600 Descending Chicago Center
08:03AM 42.0031 -87.7639 254° West 230 265 2,800 -900 Descending Chicago Center
08:04AM 42.0019 -87.8189 268° West 176 203 1,900 -720 Descending Chicago Center
08:05AM 42.0014 -87.8711 269° West 154 177 1,400 -540 Descending Chicago Center